sensor_id;sensor_type;location;lat;lon;timestamp;pressure;altitude;pressure_sealevel;temperature;humidity
51227;BME280;42714;48.260;10.980;2023-07-13T00:04:40;970.7;;;19.4;100.0
51227;BME280;42714;48.260;10.980;2023-07-13T00:09:41;970.6;;;19.3;100.0
51227;BME280;42714;48.260;10.980;2023-07-13T00:14:42;970.6;;;19.3;100.0
51227;BME280;42714;48.260;10.980;2023-07-13T00:19:43;970.6;;;19.4;100.0
51227;BME280;42714;48.260;10.980;2023-07-13T00:24:44;970.5;;;19.4;100.0
51227;BME280;42714;48.260;10.980;2023-07-13T00:29:45;970.5;;;19.4;100.0
51227;BME280;42714;48.260;10.980;2023-07-13T00:34:46;970.5;;;19.5;100.0
51227;BME280;42714;48.260;10.980;2023-07-13T00:39:47;970.5;;;19.6;100.0
51227;BME280;42714;48.260;10.980;2023-07-13T00:49:49;970.5;;;19.5;100.0
51227;BME280;42714;48.260;10.980;2023-07-13T00:54:50;970.5;;;19.5;100.0
51227;BME280;42714;48.260;10.980;2023-07-13T00:59:55;970.5;;;19.4;100.0
51227;BME280;42714;48.260;10.980;2023-07-13T01:04:51;970.5;;;19.4;100.0
51227;BME280;42714;48.260;10.980;2023-07-13T01:09:52;970.4;;;19.3;100.0
51227;BME280;42714;48.260;10.980;2023-07-13T01:19:54;970.5;;;19.3;100.0
51227;BME280;42714;48.260;10.980;2023-07-13T01:24:55;970.3;;;19.3;100.0
51227;BME280;42714;48.260;10.980;2023-07-13T01:29:56;970.3;;;19.3;100.0
51227;BME280;42714;48.260;10.980;2023-07-13T01:34:57;970.3;;;19.4;100.0
51227;BME280;42714;48.260;10.980;2023-07-13T01:39:58;970.3;;;19.4;100.0
51227;BME280;42714;48.260;10.980;2023-07-13T01:44:59;970.5;;;19.2;100.0
51227;BME280;42714;48.260;10.980;2023-07-13T01:50:00;970.4;;;19.1;100.0
51227;BME280;42714;48.260;10.980;2023-07-13T01:55:01;970.3;;;19.0;100.0
51227;BME280;42714;48.260;10.980;2023-07-13T02:00:05;970.3;;;19.0;100.0
51227;BME280;42714;48.260;10.980;2023-07-13T02:20:06;970.7;;;19.0;100.0
51227;BME280;42714;48.260;10.980;2023-07-13T02:25:07;970.7;;;18.9;100.0
51227;BME280;42714;48.260;10.980;2023-07-13T02:30:09;970.8;;;18.8;100.0
51227;BME280;42714;48.260;10.980;2023-07-13T02:35:09;970.8;;;18.8;100.0
51227;BME280;42714;48.260;10.980;2023-07-13T02:40:10;970.8;;;18.8;100.0
51227;BME280;42714;48.260;10.980;2023-07-13T02:45:11;970.9;;;18.7;100.0
51227;BME280;42714;48.260;10.980;2023-07-13T02:50:12;970.9;;;18.8;100.0
51227;BME280;42714;48.260;10.980;2023-07-13T02:55:13;970.9;;;18.8;100.0
51227;BME280;42714;48.260;10.980;2023-07-13T03:00:14;970.9;;;18.8;100.0
51227;BME280;42714;48.260;10.980;2023-07-13T03:05:16;970.9;;;18.8;100.0
51227;BME280;42714;48.260;10.980;2023-07-13T03:10:16;971.0;;;18.5;100.0
51227;BME280;42714;48.260;10.980;2023-07-13T03:15:17;971.0;;;18.5;100.0
51227;BME280;42714;48.260;10.980;2023-07-13T03:20:18;971.1;;;18.4;100.0
51227;BME280;42714;48.260;10.980;2023-07-13T03:25:19;971.1;;;18.4;100.0
51227;BME280;42714;48.260;10.980;2023-07-13T03:30:20;971.1;;;18.5;100.0
51227;BME280;42714;48.260;10.980;2023-07-13T03:35:21;971.1;;;18.4;100.0
51227;BME280;42714;48.260;10.980;2023-07-13T03:40:22;971.1;;;18.4;100.0
51227;BME280;42714;48.260;10.980;2023-07-13T03:45:23;971.2;;;18.3;100.0
51227;BME280;42714;48.260;10.980;2023-07-13T03:50:24;971.2;;;18.3;100.0
51227;BME280;42714;48.260;10.980;2023-07-13T03:55:25;971.3;;;18.3;100.0
51227;BME280;42714;48.260;10.980;2023-07-13T04:00:26;971.3;;;18.3;100.0
51227;BME280;42714;48.260;10.980;2023-07-13T04:05:27;971.3;;;18.3;100.0
51227;BME280;42714;48.260;10.980;2023-07-13T04:10:28;971.4;;;18.3;100.0
51227;BME280;42714;48.260;10.980;2023-07-13T04:15:30;971.4;;;18.4;100.0
51227;BME280;42714;48.260;10.980;2023-07-13T04:20:30;971.4;;;18.4;100.0
51227;BME280;42714;48.260;10.980;2023-07-13T04:25:31;971.5;;;18.4;100.0
51227;BME280;42714;48.260;10.980;2023-07-13T04:30:32;971.6;;;18.3;100.0
51227;BME280;42714;48.260;10.980;2023-07-13T04:35:33;971.6;;;18.3;100.0
51227;BME280;42714;48.260;10.980;2023-07-13T04:40:34;971.6;;;18.2;100.0
51227;BME280;42714;48.260;10.980;2023-07-13T04:45:35;971.7;;;18.1;100.0
51227;BME280;42714;48.260;10.980;2023-07-13T04:50:36;971.8;;;18.0;100.0
51227;BME280;42714;48.260;10.980;2023-07-13T04:55:37;971.8;;;18.1;100.0
51227;BME280;42714;48.260;10.980;2023-07-13T05:00:39;971.8;;;18.2;100.0
51227;BME280;42714;48.260;10.980;2023-07-13T05:05:39;971.7;;;18.3;100.0
51227;BME280;42714;48.260;10.980;2023-07-13T05:10:40;971.8;;;18.4;100.0
51227;BME280;42714;48.260;10.980;2023-07-13T05:15:41;971.8;;;18.5;100.0
51227;BME280;42714;48.260;10.980;2023-07-13T05:20:42;971.8;;;18.6;100.0
51227;BME280;42714;48.260;10.980;2023-07-13T05:25:43;971.8;;;18.6;100.0
51227;BME280;42714;48.260;10.980;2023-07-13T05:30:45;971.8;;;18.6;100.0
51227;BME280;42714;48.260;10.980;2023-07-13T05:35:45;971.8;;;18.8;100.0
51227;BME280;42714;48.260;10.980;2023-07-13T05:40:46;971.8;;;18.9;100.0
51227;BME280;42714;48.260;10.980;2023-07-13T05:45:47;971.9;;;19.0;100.0
51227;BME280;42714;48.260;10.980;2023-07-13T05:50:48;971.9;;;19.0;100.0
51227;BME280;42714;48.260;10.980;2023-07-13T05:55:49;971.9;;;19.0;100.0
51227;BME280;42714;48.260;10.980;2023-07-13T06:00:57;972.1;;;18.9;100.0
51227;BME280;42714;48.260;10.980;2023-07-13T06:05:51;972.1;;;18.8;100.0
51227;BME280;42714;48.260;10.980;2023-07-13T06:10:53;972.2;;;18.7;100.0
51227;BME280;42714;48.260;10.980;2023-07-13T06:15:53;972.2;;;18.8;100.0
51227;BME280;42714;48.260;10.980;2023-07-13T06:20:54;972.3;;;18.8;100.0
51227;BME280;42714;48.260;10.980;2023-07-13T06:25:55;972.4;;;18.6;100.0
51227;BME280;42714;48.260;10.980;2023-07-13T06:30:57;972.4;;;18.5;100.0
51227;BME280;42714;48.260;10.980;2023-07-13T06:35:57;972.5;;;18.4;100.0
51227;BME280;42714;48.260;10.980;2023-07-13T06:40:58;972.5;;;18.3;100.0
51227;BME280;42714;48.260;10.980;2023-07-13T06:45:59;972.5;;;18.0;100.0
51227;BME280;42714;48.260;10.980;2023-07-13T06:51:01;972.5;;;17.6;100.0
51227;BME280;42714;48.260;10.980;2023-07-13T06:56:01;972.6;;;17.4;100.0
51227;BME280;42714;48.260;10.980;2023-07-13T07:01:03;972.6;;;17.3;100.0
51227;BME280;42714;48.260;10.980;2023-07-13T07:11:05;972.8;;;17.2;100.0
51227;BME280;42714;48.260;10.980;2023-07-13T07:16:05;972.8;;;17.3;100.0
51227;BME280;42714;48.260;10.980;2023-07-13T07:21:06;972.7;;;17.4;100.0
51227;BME280;42714;48.260;10.980;2023-07-13T07:26:07;972.8;;;17.5;100.0
51227;BME280;42714;48.260;10.980;2023-07-13T07:31:08;972.8;;;17.6;100.0
51227;BME280;42714;48.260;10.980;2023-07-13T07:36:09;972.9;;;17.8;100.0
51227;BME280;42714;48.260;10.980;2023-07-13T07:41:11;972.9;;;18.0;100.0
51227;BME280;42714;48.260;10.980;2023-07-13T07:46:11;973.0;;;18.5;100.0
51227;BME280;42714;48.260;10.980;2023-07-13T07:51:12;973.0;;;18.9;100.0
51227;BME280;42714;48.260;10.980;2023-07-13T07:56:14;973.0;;;19.2;100.0
51227;BME280;42714;48.260;10.980;2023-07-13T08:01:14;973.0;;;19.3;100.0
51227;BME280;42714;48.260;10.980;2023-07-13T08:06:15;973.1;;;19.1;100.0
51227;BME280;42714;48.260;10.980;2023-07-13T08:11:16;973.0;;;19.0;100.0
51227;BME280;42714;48.260;10.980;2023-07-13T08:16:17;973.1;;;19.0;100.0
51227;BME280;42714;48.260;10.980;2023-07-13T08:21:18;973.0;;;19.1;100.0
51227;BME280;42714;48.260;10.980;2023-07-13T08:26:19;973.1;;;19.3;100.0
51227;BME280;42714;48.260;10.980;2023-07-13T08:31:20;973.1;;;19.5;100.0
51227;BME280;42714;48.260;10.980;2023-07-13T08:36:21;973.1;;;19.5;100.0
51227;BME280;42714;48.260;10.980;2023-07-13T08:41:22;973.1;;;19.4;100.0
51227;BME280;42714;48.260;10.980;2023-07-13T08:46:25;973.1;;;19.5;100.0
51227;BME280;42714;48.260;10.980;2023-07-13T08:51:30;973.1;;;20.1;100.0
51227;BME280;42714;48.260;10.980;2023-07-13T08:56:27;973.1;;;20.3;100.0
51227;BME280;42714;48.260;10.980;2023-07-13T09:01:31;973.1;;;20.3;100.0
51227;BME280;42714;48.260;10.980;2023-07-13T09:06:30;973.1;;;20.5;100.0
51227;BME280;42714;48.260;10.980;2023-07-13T09:16:29;973.0;;;20.8;100.0
51227;BME280;42714;48.260;10.980;2023-07-13T09:21:36;973.0;;;21.0;100.0
51227;BME280;42714;48.260;10.980;2023-07-13T09:26:32;973.1;;;21.2;100.0
51227;BME280;42714;48.260;10.980;2023-07-13T09:31:33;973.0;;;21.4;100.0
51227;BME280;42714;48.260;10.980;2023-07-13T09:36:34;973.0;;;21.8;100.0
51227;BME280;42714;48.260;10.980;2023-07-13T09:46:36;973.0;;;22.4;100.0
51227;BME280;42714;48.260;10.980;2023-07-13T09:51:37;973.0;;;22.7;100.0
51227;BME280;42714;48.260;10.980;2023-07-13T09:56:38;973.0;;;23.1;100.0
51227;BME280;42714;48.260;10.980;2023-07-13T10:01:39;972.9;;;23.4;100.0
51227;BME280;42714;48.260;10.980;2023-07-13T10:06:40;972.9;;;23.8;100.0
51227;BME280;42714;48.260;10.980;2023-07-13T10:11:41;972.9;;;24.3;100.0
51227;BME280;42714;48.260;10.980;2023-07-13T10:16:42;973.0;;;24.7;100.0
51227;BME280;42714;48.260;10.980;2023-07-13T10:21:47;973.0;;;25.1;100.0
51227;BME280;42714;48.260;10.980;2023-07-13T10:26:46;973.0;;;25.4;100.0
51227;BME280;42714;48.260;10.980;2023-07-13T10:31:45;973.0;;;25.5;100.0
51227;BME280;42714;48.260;10.980;2023-07-13T10:36:47;973.0;;;25.8;100.0
51227;BME280;42714;48.260;10.980;2023-07-13T10:41:48;973.0;;;26.1;100.0
51227;BME280;42714;48.260;10.980;2023-07-13T10:46:48;973.0;;;26.4;100.0
51227;BME280;42714;48.260;10.980;2023-07-13T10:51:49;973.0;;;26.6;100.0
51227;BME280;42714;48.260;10.980;2023-07-13T10:56:52;972.9;;;26.8;95.9
51227;BME280;42714;48.260;10.980;2023-07-13T11:06:53;972.9;;;26.9;78.7
51227;BME280;42714;48.260;10.980;2023-07-13T11:11:53;973.0;;;26.6;78.0
51227;BME280;42714;48.260;10.980;2023-07-13T11:16:54;973.0;;;26.4;79.2
51227;BME280;42714;48.260;10.980;2023-07-13T11:26:56;973.0;;;26.5;77.6
51227;BME280;42714;48.260;10.980;2023-07-13T11:31:58;972.8;;;27.8;59.1
51227;BME280;42714;48.260;10.980;2023-07-13T11:36:58;972.9;;;27.8;54.5
51227;BME280;42714;48.260;10.980;2023-07-13T11:42:00;972.9;;;27.1;52.1
51227;BME280;42714;48.260;10.980;2023-07-13T11:47:00;972.9;;;26.6;64.3
51227;BME280;42714;48.260;10.980;2023-07-13T11:52:01;972.9;;;26.1;63.0
51227;BME280;42714;48.260;10.980;2023-07-13T11:57:06;973.0;;;25.9;73.1
51227;BME280;42714;48.260;10.980;2023-07-13T12:02:08;972.9;;;26.2;70.8
51227;BME280;42714;48.260;10.980;2023-07-13T12:07:05;972.8;;;26.7;61.6
51227;BME280;42714;48.260;10.980;2023-07-13T12:12:09;972.8;;;26.5;63.2
51227;BME280;42714;48.260;10.980;2023-07-13T12:22:08;972.7;;;26.9;67.4
51227;BME280;42714;48.260;10.980;2023-07-13T12:32:09;972.5;;;30.1;45.7
51227;BME280;42714;48.260;10.980;2023-07-13T12:37:10;972.4;;;30.8;45.8
51227;BME280;42714;48.260;10.980;2023-07-13T12:42:16;972.4;;;30.8;42.3
51227;BME280;42714;48.260;10.980;2023-07-13T12:47:13;972.3;;;29.9;44.5
51227;BME280;42714;48.260;10.980;2023-07-13T12:52:14;972.3;;;29.4;49.5
51227;BME280;42714;48.260;10.980;2023-07-13T12:57:15;972.3;;;28.8;53.2
51227;BME280;42714;48.260;10.980;2023-07-13T13:02:21;972.3;;;28.4;54.3
51227;BME280;42714;48.260;10.980;2023-07-13T13:07:16;972.3;;;28.3;52.8
51227;BME280;42714;48.260;10.980;2023-07-13T13:12:17;972.3;;;28.0;54.1
51227;BME280;42714;48.260;10.980;2023-07-13T13:17:19;972.3;;;27.7;52.0
51227;BME280;42714;48.260;10.980;2023-07-13T13:22:19;972.2;;;27.5;56.4
51227;BME280;42714;48.260;10.980;2023-07-13T13:27:21;972.2;;;27.7;58.6
51227;BME280;42714;48.260;10.980;2023-07-13T13:32:21;972.2;;;28.0;52.0
51227;BME280;42714;48.260;10.980;2023-07-13T13:37:23;972.2;;;27.8;55.3
51227;BME280;42714;48.260;10.980;2023-07-13T13:42:23;972.1;;;27.9;59.9
51227;BME280;42714;48.260;10.980;2023-07-13T13:47:28;972.2;;;28.2;53.1
51227;BME280;42714;48.260;10.980;2023-07-13T13:52:25;972.2;;;28.3;50.2
51227;BME280;42714;48.260;10.980;2023-07-13T13:57:26;972.1;;;28.0;47.3
51227;BME280;42714;48.260;10.980;2023-07-13T14:02:27;972.2;;;27.6;54.8
51227;BME280;42714;48.260;10.980;2023-07-13T14:07:28;972.1;;;27.3;54.5
51227;BME280;42714;48.260;10.980;2023-07-13T14:12:29;972.1;;;27.1;60.7
51227;BME280;42714;48.260;10.980;2023-07-13T14:17:30;972.2;;;27.2;66.7
51227;BME280;42714;48.260;10.980;2023-07-13T14:22:31;972.2;;;27.4;61.1
51227;BME280;42714;48.260;10.980;2023-07-13T14:27:32;972.1;;;27.7;59.7
51227;BME280;42714;48.260;10.980;2023-07-13T14:32:33;972.1;;;27.7;52.3
51227;BME280;42714;48.260;10.980;2023-07-13T14:37:34;972.1;;;27.4;54.7
51227;BME280;42714;48.260;10.980;2023-07-13T14:42:35;972.2;;;27.1;53.3
51227;BME280;42714;48.260;10.980;2023-07-13T14:47:36;972.2;;;26.9;62.1
51227;BME280;42714;48.260;10.980;2023-07-13T14:52:37;972.1;;;26.9;60.2
51227;BME280;42714;48.260;10.980;2023-07-13T14:57:38;972.0;;;27.0;53.6
51227;BME280;42714;48.260;10.980;2023-07-13T15:02:39;972.1;;;26.8;52.1
51227;BME280;42714;48.260;10.980;2023-07-13T15:07:40;972.0;;;26.6;58.9
51227;BME280;42714;48.260;10.980;2023-07-13T15:12:41;972.0;;;26.5;61.6
51227;BME280;42714;48.260;10.980;2023-07-13T15:17:43;972.0;;;26.3;62.7
51227;BME280;42714;48.260;10.980;2023-07-13T15:22:43;972.0;;;26.3;67.5
51227;BME280;42714;48.260;10.980;2023-07-13T15:27:44;972.0;;;26.2;63.7
51227;BME280;42714;48.260;10.980;2023-07-13T15:32:45;972.1;;;25.9;64.1
51227;BME280;42714;48.260;10.980;2023-07-13T15:37:46;972.1;;;25.8;69.3
51227;BME280;42714;48.260;10.980;2023-07-13T15:42:47;972.1;;;25.8;71.1
51227;BME280;42714;48.260;10.980;2023-07-13T15:47:48;972.0;;;25.7;74.7
51227;BME280;42714;48.260;10.980;2023-07-13T15:52:50;972.0;;;25.8;79.7
51227;BME280;42714;48.260;10.980;2023-07-13T15:57:51;972.0;;;25.8;65.7
51227;BME280;42714;48.260;10.980;2023-07-13T16:02:51;972.0;;;25.8;54.2
51227;BME280;42714;48.260;10.980;2023-07-13T16:07:52;972.1;;;25.5;57.0
51227;BME280;42714;48.260;10.980;2023-07-13T16:12:53;972.0;;;25.3;57.7
51227;BME280;42714;48.260;10.980;2023-07-13T16:17:54;972.0;;;25.1;58.8
51227;BME280;42714;48.260;10.980;2023-07-13T16:22:55;972.0;;;24.9;63.3
51227;BME280;42714;48.260;10.980;2023-07-13T16:27:56;972.0;;;24.6;69.0
51227;BME280;42714;48.260;10.980;2023-07-13T16:32:58;972.1;;;24.6;70.7
51227;BME280;42714;48.260;10.980;2023-07-13T16:37:58;972.1;;;24.6;81.9
51227;BME280;42714;48.260;10.980;2023-07-13T16:42:59;972.2;;;24.7;85.4
51227;BME280;42714;48.260;10.980;2023-07-13T16:48:01;972.2;;;24.7;88.4
51227;BME280;42714;48.260;10.980;2023-07-13T16:53:01;972.2;;;24.7;82.2
51227;BME280;42714;48.260;10.980;2023-07-13T16:58:02;972.2;;;24.7;84.9
51227;BME280;42714;48.260;10.980;2023-07-13T17:03:03;972.2;;;24.6;74.7
51227;BME280;42714;48.260;10.980;2023-07-13T17:08:10;972.2;;;24.6;64.8
51227;BME280;42714;48.260;10.980;2023-07-13T17:13:07;972.2;;;24.5;75.5
51227;BME280;42714;48.260;10.980;2023-07-13T17:18:06;972.2;;;24.4;72.7
51227;BME280;42714;48.260;10.980;2023-07-13T17:23:18;972.2;;;24.3;71.7
51227;BME280;42714;48.260;10.980;2023-07-13T17:28:08;972.2;;;24.2;73.7
51227;BME280;42714;48.260;10.980;2023-07-13T17:33:18;972.2;;;24.1;77.7
51227;BME280;42714;48.260;10.980;2023-07-13T17:38:10;972.2;;;24.1;86.0
51227;BME280;42714;48.260;10.980;2023-07-13T17:43:11;972.1;;;24.0;69.0
51227;BME280;42714;48.260;10.980;2023-07-13T17:48:12;972.1;;;24.3;70.9
51227;BME280;42714;48.260;10.980;2023-07-13T17:53:15;972.2;;;24.4;66.6
51227;BME280;42714;48.260;10.980;2023-07-13T17:58:15;972.3;;;24.4;66.8
51227;BME280;42714;48.260;10.980;2023-07-13T18:03:16;972.3;;;24.4;65.1
51227;BME280;42714;48.260;10.980;2023-07-13T18:08:19;972.3;;;24.4;66.6
51227;BME280;42714;48.260;10.980;2023-07-13T18:13:17;972.3;;;24.4;70.2
51227;BME280;42714;48.260;10.980;2023-07-13T18:18:18;972.3;;;24.2;70.6
51227;BME280;42714;48.260;10.980;2023-07-13T18:23:20;972.3;;;24.1;74.2
51227;BME280;42714;48.260;10.980;2023-07-13T18:28:20;972.3;;;24.0;73.2
51227;BME280;42714;48.260;10.980;2023-07-13T18:33:22;972.3;;;24.0;78.8
51227;BME280;42714;48.260;10.980;2023-07-13T18:38:23;972.3;;;23.9;78.6
51227;BME280;42714;48.260;10.980;2023-07-13T18:43:23;972.4;;;23.9;81.5
51227;BME280;42714;48.260;10.980;2023-07-13T18:48:25;972.4;;;23.8;79.8
51227;BME280;42714;48.260;10.980;2023-07-13T18:53:25;972.4;;;23.6;81.3
51227;BME280;42714;48.260;10.980;2023-07-13T18:58:26;972.4;;;23.3;82.9
51227;BME280;42714;48.260;10.980;2023-07-13T19:03:30;972.5;;;23.1;89.2
51227;BME280;42714;48.260;10.980;2023-07-13T19:08:28;972.5;;;22.9;92.7
51227;BME280;42714;48.260;10.980;2023-07-13T19:13:30;972.6;;;22.8;97.1
51227;BME280;42714;48.260;10.980;2023-07-13T19:18:30;972.6;;;22.7;99.5
51227;BME280;42714;48.260;10.980;2023-07-13T19:23:32;972.7;;;22.6;100.0
51227;BME280;42714;48.260;10.980;2023-07-13T19:28:35;972.7;;;22.6;100.0
51227;BME280;42714;48.260;10.980;2023-07-13T19:33:33;972.8;;;22.4;100.0
51227;BME280;42714;48.260;10.980;2023-07-13T19:38:34;972.8;;;22.4;100.0
51227;BME280;42714;48.260;10.980;2023-07-13T19:43:35;972.9;;;22.0;100.0
51227;BME280;42714;48.260;10.980;2023-07-13T19:48:36;972.9;;;21.9;100.0
51227;BME280;42714;48.260;10.980;2023-07-13T19:53:37;972.9;;;21.6;100.0
51227;BME280;42714;48.260;10.980;2023-07-13T19:58:38;973.0;;;21.5;100.0
51227;BME280;42714;48.260;10.980;2023-07-13T20:03:40;973.1;;;21.3;100.0
51227;BME280;42714;48.260;10.980;2023-07-13T20:08:40;973.2;;;21.4;100.0
51227;BME280;42714;48.260;10.980;2023-07-13T20:13:41;973.3;;;21.1;100.0
51227;BME280;42714;48.260;10.980;2023-07-13T20:18:42;973.3;;;21.0;100.0
51227;BME280;42714;48.260;10.980;2023-07-13T20:23:43;973.4;;;20.9;100.0
51227;BME280;42714;48.260;10.980;2023-07-13T20:28:44;973.4;;;20.7;100.0
51227;BME280;42714;48.260;10.980;2023-07-13T20:33:45;973.5;;;20.7;100.0
51227;BME280;42714;48.260;10.980;2023-07-13T20:38:46;973.5;;;20.7;100.0
51227;BME280;42714;48.260;10.980;2023-07-13T20:43:47;973.5;;;20.6;100.0
51227;BME280;42714;48.260;10.980;2023-07-13T20:48:49;973.5;;;20.8;100.0
51227;BME280;42714;48.260;10.980;2023-07-13T20:53:49;973.5;;;20.8;100.0
51227;BME280;42714;48.260;10.980;2023-07-13T20:58:50;973.6;;;20.7;100.0
51227;BME280;42714;48.260;10.980;2023-07-13T21:03:53;973.6;;;20.8;100.0
51227;BME280;42714;48.260;10.980;2023-07-13T21:08:52;973.6;;;21.0;100.0
51227;BME280;42714;48.260;10.980;2023-07-13T21:13:54;973.6;;;21.0;100.0
51227;BME280;42714;48.260;10.980;2023-07-13T21:18:54;973.5;;;21.0;100.0
51227;BME280;42714;48.260;10.980;2023-07-13T21:23:55;973.6;;;21.1;100.0
51227;BME280;42714;48.260;10.980;2023-07-13T21:28:56;973.7;;;21.0;100.0
51227;BME280;42714;48.260;10.980;2023-07-13T21:33:58;973.8;;;21.3;100.0
51227;BME280;42714;48.260;10.980;2023-07-13T21:38:59;973.8;;;21.1;100.0
51227;BME280;42714;48.260;10.980;2023-07-13T21:44:00;973.8;;;21.2;100.0
51227;BME280;42714;48.260;10.980;2023-07-13T21:49:00;973.8;;;21.2;100.0
51227;BME280;42714;48.260;10.980;2023-07-13T21:54:01;973.8;;;21.1;100.0
51227;BME280;42714;48.260;10.980;2023-07-13T21:59:04;973.8;;;21.1;100.0
51227;BME280;42714;48.260;10.980;2023-07-13T22:04:05;973.9;;;21.1;100.0
51227;BME280;42714;48.260;10.980;2023-07-13T22:09:05;973.8;;;21.1;100.0
51227;BME280;42714;48.260;10.980;2023-07-13T22:14:05;973.7;;;21.1;100.0
51227;BME280;42714;48.260;10.980;2023-07-13T22:24:11;973.8;;;20.9;100.0
51227;BME280;42714;48.260;10.980;2023-07-13T22:29:12;973.7;;;20.8;100.0
51227;BME280;42714;48.260;10.980;2023-07-13T22:34:13;973.8;;;20.7;100.0
51227;BME280;42714;48.260;10.980;2023-07-13T22:39:11;973.9;;;20.6;100.0
51227;BME280;42714;48.260;10.980;2023-07-13T22:44:19;973.9;;;20.4;100.0
51227;BME280;42714;48.260;10.980;2023-07-13T22:54:13;974.1;;;20.4;100.0
51227;BME280;42714;48.260;10.980;2023-07-13T22:59:14;974.1;;;20.2;100.0
51227;BME280;42714;48.260;10.980;2023-07-13T23:04:22;974.0;;;20.3;100.0
51227;BME280;42714;48.260;10.980;2023-07-13T23:09:16;974.0;;;20.1;100.0
51227;BME280;42714;48.260;10.980;2023-07-13T23:14:17;974.0;;;19.8;100.0
51227;BME280;42714;48.260;10.980;2023-07-13T23:19:21;974.0;;;20.1;100.0
51227;BME280;42714;48.260;10.980;2023-07-13T23:24:19;974.0;;;20.1;100.0
51227;BME280;42714;48.260;10.980;2023-07-13T23:29:20;973.9;;;20.2;100.0
51227;BME280;42714;48.260;10.980;2023-07-13T23:34:21;973.9;;;20.3;100.0
51227;BME280;42714;48.260;10.980;2023-07-13T23:39:22;973.8;;;20.5;100.0
51227;BME280;42714;48.260;10.980;2023-07-13T23:44:23;973.7;;;20.4;100.0
51227;BME280;42714;48.260;10.980;2023-07-13T23:49:26;973.7;;;20.4;100.0
51227;BME280;42714;48.260;10.980;2023-07-13T23:54:26;973.7;;;20.4;100.0
51227;BME280;42714;48.260;10.980;2023-07-13T23:59:26;973.7;;;20.4;100.0
